createdAt,value
2018-04-30T00:02:11.772Z,18.60
2018-04-30T00:04:39.770Z,18.50
2018-04-30T00:07:07.233Z,18.60
2018-04-30T00:09:35.454Z,18.50
2018-04-30T00:12:03.051Z,18.50
2018-04-30T00:14:30.678Z,18.50
2018-04-30T00:16:58.572Z,18.50
2018-04-30T00:19:26.642Z,18.50
2018-04-30T00:21:54.080Z,18.50
2018-04-30T00:24:22.011Z,18.40
2018-04-30T00:26:49.459Z,18.50
2018-04-30T00:29:17.702Z,18.40
2018-04-30T00:31:45.170Z,18.40
2018-04-30T00:34:14.129Z,18.20
2018-04-30T00:36:42.131Z,18.20
2018-04-30T00:39:09.579Z,18.20
2018-04-30T00:41:37.526Z,18.10
2018-04-30T00:44:05.046Z,17.90
2018-04-30T00:46:32.976Z,17.80
2018-04-30T00:49:00.456Z,17.50
2018-04-30T00:51:28.690Z,16.90
2018-04-30T00:53:56.468Z,16.90
2018-04-30T00:56:23.917Z,16.60
2018-04-30T00:58:51.733Z,16.40
2018-04-30T01:01:19.192Z,16.30
2018-04-30T01:03:46.663Z,16.20
2018-04-30T01:06:14.623Z,16.10
2018-04-30T01:08:42.851Z,16.00
2018-04-30T01:11:10.289Z,15.90
2018-04-30T01:13:37.778Z,15.90
2018-04-30T01:16:05.992Z,16.00
2018-04-30T01:18:34.092Z,16.00
2018-04-30T01:21:01.540Z,16.00
2018-04-30T01:23:29.007Z,16.00
2018-04-30T01:25:56.919Z,16.00
2018-04-30T01:28:24.396Z,16.00
2018-04-30T01:30:51.848Z,16.00
2018-04-30T01:33:19.576Z,16.10
2018-04-30T01:35:48.432Z,16.10
2018-04-30T01:38:16.131Z,16.10
2018-04-30T01:40:44.899Z,16.20
2018-04-30T01:43:12.359Z,16.20
2018-04-30T01:45:39.800Z,16.20
2018-04-30T01:48:07.266Z,16.20
2018-04-30T01:50:34.745Z,16.10
2018-04-30T01:53:02.959Z,16.10
2018-04-30T01:55:30.657Z,16.10
2018-04-30T01:57:58.091Z,16.10
2018-04-30T02:00:25.580Z,16.20
2018-04-30T02:02:53.023Z,16.10
2018-04-30T02:05:20.840Z,16.20
2018-04-30T02:07:48.279Z,16.20
2018-04-30T02:10:16.625Z,16.20
2018-04-30T02:12:44.089Z,16.10
2018-04-30T02:15:11.572Z,16.10
2018-04-30T02:17:39.704Z,16.10
2018-04-30T02:20:07.674Z,16.10
2018-04-30T02:22:35.330Z,16.10
2018-04-30T02:25:03.299Z,16.10
2018-04-30T02:27:30.876Z,16.10
2018-04-30T02:29:58.323Z,16.00
2018-04-30T02:32:25.767Z,16.00
2018-04-30T02:34:53.740Z,16.00
2018-04-30T02:37:21.268Z,15.90
2018-04-30T02:39:48.721Z,15.90
2018-04-30T02:42:16.547Z,15.90
2018-04-30T02:44:45.744Z,15.90
2018-04-30T02:47:13.962Z,15.90
2018-04-30T02:49:41.440Z,15.90
2018-04-30T02:52:09.203Z,15.80
2018-04-30T02:54:37.094Z,15.80
2018-04-30T02:57:04.534Z,15.90
2018-04-30T02:59:32.003Z,15.80
2018-04-30T03:02:00.675Z,15.80
2018-04-30T03:04:28.540Z,15.80
2018-04-30T03:06:55.986Z,15.80
2018-04-30T03:09:23.669Z,15.80
2018-04-30T03:11:51.185Z,15.70
2018-04-30T03:14:18.647Z,15.70
2018-04-30T03:16:46.443Z,15.60
2018-04-30T03:19:14.208Z,15.60
2018-04-30T03:21:42.583Z,15.50
2018-04-30T03:24:10.126Z,15.50
2018-04-30T03:26:38.218Z,15.40
2018-04-30T03:29:05.769Z,15.40
2018-04-30T03:31:33.242Z,15.40
2018-04-30T03:34:01.480Z,15.40
2018-04-30T03:36:29.311Z,15.40
2018-04-30T03:38:56.850Z,15.40
2018-04-30T03:41:25.299Z,15.40
2018-04-30T03:43:52.809Z,15.40
2018-04-30T03:46:20.332Z,15.30
2018-04-30T03:48:48.548Z,15.30
2018-04-30T03:51:16.111Z,15.30
2018-04-30T03:53:43.928Z,15.30
2018-04-30T03:56:11.363Z,15.20
2018-04-30T03:58:38.814Z,15.20
2018-04-30T04:01:18.366Z,15.10
2018-04-30T04:03:58.319Z,15.10
2018-04-30T04:06:38.022Z,15.00
2018-04-30T04:09:05.496Z,14.90
2018-04-30T04:11:33.175Z,14.90
2018-04-30T04:14:01.047Z,14.80
2018-04-30T04:16:28.531Z,14.70
2018-04-30T04:18:56.381Z,14.60
2018-04-30T04:21:23.835Z,14.60
2018-04-30T04:23:51.311Z,14.50
2018-04-30T04:26:19.966Z,14.40
2018-04-30T04:28:47.627Z,14.40
2018-04-30T04:31:15.344Z,14.40
2018-04-30T04:33:42.849Z,14.30
2018-04-30T04:36:10.771Z,14.20
2018-04-30T04:38:38.193Z,14.20
2018-04-30T04:41:06.015Z,14.20
2018-04-30T04:43:33.458Z,14.20
2018-04-30T04:46:00.928Z,14.20
2018-04-30T04:48:28.383Z,14.20
2018-04-30T04:50:55.911Z,14.20
2018-04-30T04:53:23.943Z,14.30
2018-04-30T04:55:51.415Z,14.30
2018-04-30T04:58:19.714Z,14.40
2018-04-30T05:00:47.168Z,14.40
2018-04-30T05:03:14.751Z,14.40
2018-04-30T05:05:42.660Z,14.40
2018-04-30T05:08:10.143Z,14.40
2018-04-30T05:10:38.783Z,14.50
2018-04-30T05:13:06.258Z,14.40
2018-04-30T05:15:33.859Z,14.50
2018-04-30T05:18:01.567Z,14.50
2018-04-30T05:20:29.422Z,14.50
2018-04-30T05:22:56.862Z,14.50
2018-04-30T05:25:24.913Z,14.50
2018-04-30T05:27:52.503Z,14.50
2018-04-30T05:30:19.972Z,14.50
2018-04-30T05:32:47.433Z,14.50
2018-04-30T05:35:15.612Z,14.50
2018-04-30T05:37:44.583Z,14.40
2018-04-30T05:40:12.061Z,14.40
2018-04-30T05:42:39.995Z,14.40
2018-04-30T05:45:07.504Z,14.40
2018-04-30T05:47:36.110Z,14.40
2018-04-30T05:50:03.691Z,14.30
2018-04-30T05:52:31.145Z,14.40
2018-04-30T05:54:59.044Z,14.40
2018-04-30T05:57:27.019Z,14.40
2018-04-30T05:59:55.276Z,14.50
2018-04-30T06:02:23.640Z,14.50
2018-04-30T06:04:52.329Z,14.50
2018-04-30T06:07:19.771Z,14.50
2018-04-30T06:09:47.222Z,14.50
2018-04-30T06:12:14.758Z,14.60
2018-04-30T06:14:42.195Z,14.60
2018-04-30T06:17:09.721Z,14.60
2018-04-30T06:19:37.879Z,14.70
2018-04-30T06:22:05.326Z,14.70
2018-04-30T06:24:32.815Z,14.60
2018-04-30T06:27:00.692Z,14.60
2018-04-30T06:29:28.166Z,14.60
2018-04-30T06:31:55.632Z,14.60
2018-04-30T06:34:23.867Z,14.60
2018-04-30T06:36:51.639Z,14.60
2018-04-30T06:39:19.091Z,14.60
2018-04-30T06:41:47.091Z,14.60
2018-04-30T06:44:15.459Z,14.50
2018-04-30T06:46:42.915Z,14.50
2018-04-30T06:49:11.077Z,14.50
2018-04-30T06:51:38.534Z,14.50
2018-04-30T06:54:06.922Z,14.60
2018-04-30T06:56:34.876Z,14.60
2018-04-30T06:59:02.319Z,14.60
2018-04-30T07:01:29.799Z,14.60
2018-04-30T07:03:57.784Z,14.70
2018-04-30T07:06:25.321Z,14.70
2018-04-30T07:08:52.773Z,14.70
2018-04-30T07:11:20.270Z,14.70
2018-04-30T07:13:48.508Z,14.60
2018-04-30T07:16:16.147Z,14.60
2018-04-30T07:18:44.139Z,14.60
2018-04-30T07:21:11.902Z,14.60
2018-04-30T07:23:39.369Z,14.60
2018-04-30T07:26:07.443Z,14.60
2018-04-30T07:28:35.663Z,14.60
2018-04-30T07:31:03.133Z,14.50
2018-04-30T07:33:30.595Z,14.60
2018-04-30T07:35:58.544Z,14.60
2018-04-30T07:38:25.983Z,14.60
2018-04-30T07:40:54.626Z,14.70
2018-04-30T07:43:22.110Z,14.70
2018-04-30T07:45:50.315Z,14.70
2018-04-30T07:48:18.131Z,14.70
2018-04-30T07:50:46.344Z,14.70
2018-04-30T07:53:13.957Z,14.70
2018-04-30T07:55:41.827Z,14.70
2018-04-30T07:58:11.039Z,14.60
2018-04-30T08:00:39.244Z,14.60
2018-04-30T08:03:06.763Z,14.60
2018-04-30T08:05:34.443Z,14.60
2018-04-30T08:08:02.705Z,14.60
2018-04-30T08:10:30.253Z,14.60
2018-04-30T08:12:57.784Z,14.50
2018-04-30T08:15:25.242Z,14.50
2018-04-30T08:17:52.712Z,14.50
2018-04-30T08:20:20.796Z,14.40
2018-04-30T08:22:48.250Z,14.40
2018-04-30T08:25:15.721Z,14.30
2018-04-30T08:27:43.457Z,14.30
2018-04-30T08:30:10.937Z,14.30
2018-04-30T08:32:38.379Z,14.20
2018-04-30T08:35:06.254Z,14.20
2018-04-30T08:37:34.587Z,14.10
2018-04-30T08:40:02.158Z,14.10
2018-04-30T08:42:30.163Z,14.10
2018-04-30T08:44:57.705Z,14.10
2018-04-30T08:47:26.036Z,13.90
2018-04-30T08:49:53.507Z,13.90
2018-04-30T08:52:20.977Z,13.80
2018-04-30T08:54:48.862Z,13.70
2018-04-30T08:57:17.100Z,13.60
2018-04-30T08:59:44.835Z,13.60
2018-04-30T09:02:13.082Z,13.50
2018-04-30T09:04:41.156Z,13.40
2018-04-30T09:07:08.660Z,13.30
2018-04-30T09:09:36.122Z,13.40
2018-04-30T09:12:03.718Z,13.40
2018-04-30T09:14:31.624Z,13.40
2018-04-30T09:16:59.872Z,13.40
2018-04-30T09:19:27.626Z,13.30
2018-04-30T09:21:56.216Z,13.30
2018-04-30T09:24:23.662Z,13.30
2018-04-30T09:26:51.579Z,13.20
2018-04-30T09:29:19.030Z,13.20
2018-04-30T09:31:46.557Z,13.20
2018-04-30T09:34:14.061Z,13.20
2018-04-30T09:36:42.073Z,13.10
2018-04-30T09:39:09.528Z,13.10
2018-04-30T09:41:37.404Z,13.10
2018-04-30T09:44:05.359Z,13.10
2018-04-30T09:46:32.813Z,13.20
2018-04-30T09:49:00.296Z,13.20
2018-04-30T09:51:29.291Z,13.20
2018-04-30T09:53:56.951Z,13.10
2018-04-30T09:56:25.177Z,13.20
2018-04-30T09:58:52.672Z,13.20
2018-04-30T10:01:20.215Z,13.30
2018-04-30T10:03:47.718Z,13.30
2018-04-30T10:06:16.155Z,13.50
2018-04-30T10:08:43.643Z,13.50
2018-04-30T10:11:11.859Z,13.60
2018-04-30T10:13:39.356Z,13.60
2018-04-30T10:16:07.046Z,13.70
2018-04-30T10:18:35.933Z,13.80
2018-04-30T10:21:04.700Z,13.80
2018-04-30T10:23:33.672Z,13.80
2018-04-30T10:26:01.106Z,13.80
2018-04-30T10:28:29.868Z,13.80
2018-04-30T10:30:57.283Z,13.90
2018-04-30T10:33:24.769Z,13.90
2018-04-30T10:35:53.428Z,14.00
2018-04-30T10:38:21.635Z,14.10
2018-04-30T10:40:49.650Z,14.00
2018-04-30T10:43:17.307Z,14.10
2018-04-30T10:45:44.872Z,14.20
2018-04-30T10:48:13.055Z,14.40
2018-04-30T10:50:40.530Z,14.40
2018-04-30T10:53:08.048Z,14.40
2018-04-30T10:55:36.045Z,14.40
2018-04-30T10:58:03.537Z,14.40
2018-04-30T11:00:31.748Z,14.30
2018-04-30T11:02:59.396Z,14.30
2018-04-30T11:05:27.061Z,14.40
2018-04-30T11:07:54.615Z,14.50
2018-04-30T11:10:22.223Z,14.50
2018-04-30T11:12:49.688Z,14.70
2018-04-30T11:15:17.906Z,15.00
2018-04-30T11:17:45.507Z,15.00
2018-04-30T11:20:13.382Z,15.10
2018-04-30T11:22:41.893Z,15.70
2018-04-30T11:25:09.334Z,15.60
2018-04-30T11:27:38.004Z,16.20
2018-04-30T11:30:06.025Z,16.20
2018-04-30T11:32:33.463Z,16.30
2018-04-30T11:35:01.591Z,16.50
2018-04-30T11:37:29.042Z,16.70
2018-04-30T11:39:56.517Z,16.70
2018-04-30T11:42:24.622Z,16.80
2018-04-30T11:44:52.136Z,16.70
2018-04-30T11:47:20.347Z,16.50
2018-04-30T11:49:48.584Z,16.40
2018-04-30T11:52:16.026Z,16.40
2018-04-30T11:54:43.890Z,16.40
2018-04-30T11:57:11.330Z,16.30
2018-04-30T11:59:38.815Z,16.20
2018-04-30T12:02:06.256Z,16.20
2018-04-30T12:04:34.240Z,16.20
2018-04-30T12:07:01.679Z,16.20
2018-04-30T12:09:29.476Z,16.30
2018-04-30T12:11:58.433Z,16.20
2018-04-30T12:14:25.896Z,16.20
2018-04-30T12:16:53.783Z,16.20
2018-04-30T12:19:22.664Z,16.20
2018-04-30T12:21:50.638Z,16.10
2018-04-30T12:24:18.099Z,16.10
2018-04-30T12:26:47.153Z,16.10
2018-04-30T12:29:14.950Z,16.10
2018-04-30T12:31:42.470Z,16.10
2018-04-30T12:34:09.980Z,16.00
2018-04-30T12:36:38.046Z,16.00
2018-04-30T12:39:05.480Z,16.00
2018-04-30T12:41:34.427Z,16.10
2018-04-30T12:44:01.896Z,16.10
2018-04-30T12:46:29.407Z,16.20
2018-04-30T12:48:58.393Z,16.30
2018-04-30T12:51:25.856Z,16.30
2018-04-30T12:53:53.818Z,16.40
2018-04-30T12:56:21.297Z,16.40
2018-04-30T12:58:49.511Z,16.50
2018-04-30T13:01:17.432Z,16.50
2018-04-30T13:03:45.794Z,16.80
2018-04-30T13:06:13.563Z,17.20
2018-04-30T13:08:41.016Z,17.30
2018-04-30T13:11:09.386Z,17.60
2018-04-30T13:13:36.845Z,17.50
2018-04-30T13:16:04.436Z,17.60
2018-04-30T13:18:33.199Z,17.30
2018-04-30T13:21:00.855Z,17.30
2018-04-30T13:23:28.623Z,17.10
2018-04-30T13:25:56.090Z,16.90
2018-04-30T13:28:23.895Z,16.80
2018-04-30T13:30:51.340Z,16.70
2018-04-30T13:33:18.817Z,16.70
2018-04-30T13:35:47.852Z,16.60
2018-04-30T13:38:15.289Z,16.50
2018-04-30T13:40:44.596Z,16.40
2018-04-30T13:43:12.069Z,16.40
2018-04-30T13:45:39.524Z,16.40
2018-04-30T13:48:09.407Z,16.20
2018-04-30T13:50:36.876Z,16.20
2018-04-30T13:53:04.321Z,16.10
2018-04-30T13:55:32.312Z,16.10
2018-04-30T13:57:59.768Z,16.10
2018-04-30T14:00:27.208Z,16.00
2018-04-30T14:02:54.696Z,15.80
2018-04-30T14:05:24.143Z,15.70
2018-04-30T14:07:51.585Z,15.70
2018-04-30T14:10:19.843Z,15.60
2018-04-30T14:12:48.054Z,15.50
2018-04-30T14:15:15.949Z,15.50
2018-04-30T14:17:43.506Z,15.50
2018-04-30T14:20:11.509Z,15.50
2018-04-30T14:22:40.469Z,15.40
2018-04-30T14:25:08.437Z,15.40
2018-04-30T14:27:36.597Z,15.50
2018-04-30T14:30:04.076Z,15.50
2018-04-30T14:32:31.596Z,15.70
2018-04-30T14:34:59.607Z,16.00
2018-04-30T14:37:27.040Z,16.10
2018-04-30T14:39:54.532Z,16.40
2018-04-30T14:42:22.485Z,16.60
2018-04-30T14:44:49.951Z,16.80
2018-04-30T14:47:17.397Z,16.90
2018-04-30T14:49:44.879Z,17.00
2018-04-30T14:52:13.102Z,16.80
2018-04-30T14:54:41.087Z,16.90
2018-04-30T14:57:08.567Z,16.60
2018-04-30T14:59:36.013Z,16.40
2018-04-30T15:02:03.564Z,15.90
2018-04-30T15:04:31.353Z,15.50
2018-04-30T15:06:59.035Z,15.20
2018-04-30T15:09:26.475Z,15.00
2018-04-30T15:11:54.888Z,15.00
2018-04-30T15:14:22.355Z,15.00
2018-04-30T15:16:50.503Z,15.10
2018-04-30T15:19:19.043Z,15.50
2018-04-30T15:21:47.105Z,15.50
2018-04-30T15:24:14.559Z,15.60
2018-04-30T15:26:42.007Z,15.80
2018-04-30T15:29:09.978Z,15.90
2018-04-30T15:31:37.427Z,16.10
2018-04-30T15:34:04.895Z,16.10
2018-04-30T15:36:32.801Z,16.20
2018-04-30T15:39:01.560Z,16.20
2018-04-30T15:41:30.987Z,16.20
2018-04-30T15:43:58.619Z,16.20
2018-04-30T15:46:26.043Z,16.10
2018-04-30T15:48:53.508Z,16.00
2018-04-30T15:51:20.991Z,15.90
2018-04-30T15:53:53.764Z,15.90
2018-04-30T15:56:21.195Z,15.90
2018-04-30T15:58:48.727Z,15.70
2018-04-30T16:01:16.982Z,15.60
2018-04-30T16:03:44.998Z,15.60
2018-04-30T16:06:12.675Z,15.60
2018-04-30T16:08:40.152Z,15.60
2018-04-30T16:11:08.360Z,15.70
2018-04-30T16:13:35.924Z,15.70
2018-04-30T16:16:03.367Z,15.70
2018-04-30T16:18:32.224Z,15.80
2018-04-30T16:20:59.690Z,15.80
2018-04-30T16:23:27.696Z,15.90
2018-04-30T16:25:55.927Z,16.00
2018-04-30T16:28:24.017Z,16.20
2018-04-30T16:30:51.470Z,16.30
2018-04-30T16:33:19.708Z,16.20
2018-04-30T16:35:48.004Z,16.20
2018-04-30T16:38:15.480Z,16.20
2018-04-30T16:40:44.247Z,16.00
2018-04-30T16:43:11.717Z,16.00
2018-04-30T16:45:39.932Z,15.90
2018-04-30T16:48:07.588Z,15.90
2018-04-30T16:50:35.027Z,15.90
2018-04-30T16:53:03.249Z,15.40
2018-04-30T16:55:31.167Z,15.40
2018-04-30T16:57:59.391Z,15.30
2018-04-30T17:00:26.914Z,15.30
2018-04-30T17:02:54.387Z,15.30
2018-04-30T17:05:22.287Z,15.40
2018-04-30T17:07:49.743Z,15.40
2018-04-30T17:10:17.431Z,15.40
2018-04-30T17:12:44.894Z,15.40
2018-04-30T17:15:13.754Z,15.30
2018-04-30T17:17:41.221Z,15.30
2018-04-30T17:20:09.096Z,15.20
2018-04-30T17:22:38.608Z,15.10
2018-04-30T17:25:06.962Z,15.00
2018-04-30T17:27:34.419Z,15.00
2018-04-30T17:30:02.700Z,15.00
2018-04-30T17:32:31.668Z,15.00
2018-04-30T17:35:00.001Z,15.00
2018-04-30T17:37:27.540Z,15.00
2018-04-30T17:39:55.040Z,14.90
2018-04-30T17:42:22.912Z,14.80
2018-04-30T17:44:50.353Z,14.80
2018-04-30T17:47:17.955Z,14.70
2018-04-30T17:49:45.870Z,14.70
2018-04-30T17:52:13.327Z,14.70
2018-04-30T17:54:41.922Z,14.60
2018-04-30T17:57:09.396Z,14.60
2018-04-30T17:59:36.842Z,14.60
2018-04-30T18:02:04.440Z,14.60
2018-04-30T18:04:32.410Z,14.60
2018-04-30T18:06:59.979Z,14.70
2018-04-30T18:09:27.627Z,14.70
2018-04-30T18:11:56.131Z,14.70
2018-04-30T18:14:24.489Z,14.70
2018-04-30T18:16:52.140Z,14.70
2018-04-30T18:19:20.926Z,14.70
2018-04-30T18:21:48.408Z,14.70
2018-04-30T18:24:16.354Z,14.70
2018-04-30T18:26:43.864Z,14.60
2018-04-30T18:29:12.046Z,14.60
2018-04-30T18:31:39.530Z,14.50
2018-04-30T18:34:07.041Z,14.40
2018-04-30T18:36:35.697Z,14.40
2018-04-30T18:39:03.158Z,14.40
2018-04-30T18:41:31.142Z,14.30
2018-04-30T18:43:59.345Z,14.30
2018-04-30T18:46:26.939Z,14.30
2018-04-30T18:48:54.472Z,14.30
2018-04-30T18:51:21.900Z,14.30
2018-04-30T18:53:49.729Z,14.30
2018-04-30T18:56:17.169Z,14.30
2018-04-30T18:58:44.743Z,14.30
2018-04-30T19:01:12.202Z,14.30
2018-04-30T19:03:39.680Z,14.30
2018-04-30T19:06:07.717Z,14.30
2018-04-30T19:08:35.238Z,14.20
2018-04-30T19:11:02.848Z,14.20
2018-04-30T19:13:30.339Z,14.00
2018-04-30T19:15:57.855Z,13.90
2018-04-30T19:18:25.315Z,13.80
2018-04-30T19:20:53.080Z,13.70
2018-04-30T19:23:20.848Z,13.60
2018-04-30T19:25:48.309Z,13.50
2018-04-30T19:28:15.776Z,13.50
2018-04-30T19:30:44.614Z,13.40
2018-04-30T19:33:12.093Z,13.30
2018-04-30T19:35:40.258Z,13.30
2018-04-30T19:38:07.740Z,13.30
2018-04-30T19:40:36.429Z,13.30
2018-04-30T19:43:04.411Z,13.30
2018-04-30T19:45:32.792Z,13.20
2018-04-30T19:48:03.658Z,13.20
2018-04-30T19:50:31.170Z,13.20
2018-04-30T19:52:58.801Z,13.10
2018-04-30T19:55:26.724Z,13.10
2018-04-30T19:57:54.926Z,13.00
2018-04-30T20:00:22.582Z,13.00
2018-04-30T20:02:50.049Z,13.00
2018-04-30T20:05:18.801Z,12.90
2018-04-30T20:07:47.084Z,12.90
2018-04-30T20:10:14.599Z,12.90
2018-04-30T20:12:42.073Z,12.90
2018-04-30T20:15:09.875Z,12.90
2018-04-30T20:17:38.050Z,12.90
2018-04-30T20:20:06.907Z,12.90
2018-04-30T20:22:35.114Z,13.00
2018-04-30T20:25:03.014Z,13.00
2018-04-30T20:27:30.466Z,13.00
2018-04-30T20:29:57.933Z,13.00
2018-04-30T20:32:25.385Z,12.90
2018-04-30T20:34:53.466Z,12.90
2018-04-30T20:37:20.929Z,12.80
2018-04-30T20:39:48.472Z,12.60
2018-04-30T20:42:16.336Z,12.50
2018-04-30T20:44:43.817Z,12.40
2018-04-30T20:47:11.278Z,12.30
2018-04-30T20:49:39.328Z,12.20
2018-04-30T20:52:07.467Z,12.10
2018-04-30T20:54:35.286Z,11.90
2018-04-30T20:57:03.550Z,11.70
2018-04-30T20:59:30.996Z,11.70
2018-04-30T21:01:58.562Z,11.60
2018-04-30T21:04:26.632Z,11.50
2018-04-30T21:06:54.094Z,11.40
2018-04-30T21:09:21.539Z,11.40
2018-04-30T21:11:49.067Z,11.30
2018-04-30T21:14:16.514Z,11.30
2018-04-30T21:16:44.091Z,11.30
2018-04-30T21:19:11.777Z,11.20
2018-04-30T21:21:39.336Z,11.20
2018-04-30T21:24:07.407Z,11.30
2018-04-30T21:26:35.278Z,11.20
2018-04-30T21:29:03.032Z,11.30
2018-04-30T21:31:30.502Z,11.20
2018-04-30T21:33:58.059Z,11.10
2018-04-30T21:36:26.934Z,11.00
2018-04-30T21:38:54.568Z,11.00
2018-04-30T21:41:22.678Z,10.90
2018-04-30T21:43:50.160Z,10.80
2018-04-30T21:46:17.684Z,10.70
2018-04-30T21:48:45.132Z,10.60
2018-04-30T21:51:12.716Z,10.50
2018-04-30T21:53:40.573Z,10.40
2018-04-30T21:56:08.068Z,10.40
2018-04-30T21:58:35.544Z,10.30
2018-04-30T22:01:02.991Z,10.30
2018-04-30T22:03:30.462Z,10.20
2018-04-30T22:05:58.255Z,10.10
2018-04-30T22:08:25.777Z,10.00
2018-04-30T22:10:53.211Z,9.80
2018-04-30T22:13:20.747Z,9.60
2018-04-30T22:15:48.351Z,9.40
2018-04-30T22:18:15.888Z,9.30
2018-04-30T22:20:43.850Z,9.40
2018-04-30T22:23:12.832Z,9.40
2018-04-30T22:25:41.700Z,9.40
2018-04-30T22:28:09.176Z,9.40
2018-04-30T22:30:37.409Z,9.60
2018-04-30T22:33:04.867Z,9.60
2018-04-30T22:35:32.845Z,9.60
2018-04-30T22:38:00.284Z,9.70
2018-04-30T22:40:27.965Z,9.70
2018-04-30T22:42:55.475Z,9.70
2018-04-30T22:45:22.980Z,9.70
2018-04-30T22:47:50.418Z,9.70
2018-04-30T22:50:18.084Z,9.70
2018-04-30T22:52:45.520Z,9.70
2018-04-30T22:55:13.322Z,9.70
2018-04-30T22:57:40.808Z,9.60
2018-04-30T23:00:09.043Z,9.40
2018-04-30T23:02:36.738Z,9.40
2018-04-30T23:05:04.675Z,9.40
2018-04-30T23:07:32.122Z,9.40
2018-04-30T23:09:59.619Z,9.40
2018-04-30T23:12:27.838Z,9.20
2018-04-30T23:14:55.519Z,9.10
2018-04-30T23:17:22.961Z,9.10
2018-04-30T23:19:50.742Z,9.10
2018-04-30T23:22:18.621Z,9.00
2018-04-30T23:24:46.478Z,9.00
2018-04-30T23:27:13.919Z,9.00
2018-04-30T23:29:41.361Z,8.90
2018-04-30T23:32:08.855Z,8.90
2018-04-30T23:34:36.357Z,8.80
2018-04-30T23:37:04.175Z,8.80
2018-04-30T23:39:31.610Z,8.70
2018-04-30T23:41:59.492Z,8.70
2018-04-30T23:44:26.939Z,8.70
2018-04-30T23:46:54.432Z,8.70
2018-04-30T23:49:21.894Z,8.70
2018-04-30T23:51:50.212Z,8.60
2018-04-30T23:54:17.931Z,8.60
2018-04-30T23:56:46.155Z,8.50
2018-04-30T23:59:13.586Z,8.50
